Rumney, New Hampshire
Current Conditions -  °F | °C
As of 11:35 PM on Friday 19 Dec 2014 (Local Time) from K1P1 Reporting Station
Clear Clear  
Wind Chill: 15°   Ceiling: Unl
Heat Index: 24°   Visibility: 10mi
Dew Point: 21°   Wind: 8mph
Humidity: 90%   Direction: 280°W
Pressure: 30.16"   Gusts: 17mph
Location:  43.81°N, 71.81°W
Report Text: K1P1 200435Z AUTO 28007G15KT 10SM CLR M05/M06 A3016 RMK AO2 T10461060
Loading
Personal Weather Stations






























Interactive Weather Map New forecast layout! Learn more

10-Day Weather Forecast

Advertisements
Track Severe Weather on mobile